Time;durP1;ratioP1;P1;durP2;ratioP2;P2;SDS_P1;SDS_P2;PMS_P1;PMS_P2;Temp;Humidity;BMP_temperature;BMP_pressure;BME280_temperature;BME280_humidity;BME280_pressure;Samples;Min_cycle;Max_cycle;Signal;HPM_P1;HPM_P2
2022/01/11 00:00:31;;;;;;;6.50;4.70;;;17.20;45.90;;;;;;4933112;28;88203;-74
2022/01/11 00:02:57;;;;;;;5.47;4.25;;;17.20;45.90;;;;;;4933024;28;90875;-73
2022/01/11 00:05:29;;;;;;;6.82;4.57;;;17.20;45.90;;;;;;4932858;28;90736;-74
2022/01/11 00:07:56;;;;;;;5.73;4.37;;;17.20;46.00;;;;;;4932453;28;88233;-74
2022/01/11 00:10:34;;;;;;;5.63;4.45;;;17.20;45.90;;;;;;4933296;28;88346;-74
2022/01/11 00:13:00;;;;;;;6.47;4.90;;;17.20;45.80;;;;;;4932818;28;88552;-74
2022/01/11 00:15:28;;;;;;;5.70;4.40;;;17.20;45.70;;;;;;4932698;28;89460;-74
2022/01/11 00:17:54;;;;;;;5.82;4.30;;;17.30;45.80;;;;;;4932350;28;88482;-74
2022/01/11 00:20:21;;;;;;;6.35;4.50;;;17.20;45.80;;;;;;4934822;28;88241;-74
2022/01/11 00:25:26;;;;;;;5.60;4.22;;;17.20;45.80;;;;;;4935593;28;88338;-74
2022/01/11 00:27:53;;;;;;;5.95;4.63;;;17.20;45.80;;;;;;4935106;28;89253;-74
2022/01/11 00:30:19;;;;;;;5.25;4.25;;;17.20;45.70;;;;;;4935594;28;88026;-73
2022/01/11 00:32:51;;;;;;;5.70;4.30;;;17.20;45.70;;;;;;4935197;28;90683;-74
2022/01/11 00:35:21;;;;;;;6.28;4.40;;;17.20;45.70;;;;;;4936186;28;90190;-74
2022/01/11 00:37:47;;;;;;;5.03;4.20;;;17.20;45.80;;;;;;4936344;28;88596;-75
2022/01/11 00:40:13;;;;;;;5.55;4.38;;;17.20;45.80;;;;;;4936832;28;88539;-74
2022/01/11 00:42:40;;;;;;;4.55;3.95;;;17.20;45.80;;;;;;4936470;28;88501;-74
2022/01/11 00:45:09;;;;;;;5.55;3.90;;;17.10;45.70;;;;;;4937167;28;88869;-74
2022/01/11 00:47:35;;;;;;;4.70;4.03;;;17.10;45.80;;;;;;4936416;28;88023;-74
2022/01/11 00:50:03;;;;;;;6.70;4.20;;;17.10;45.80;;;;;;4937092;28;88117;-74
2022/01/11 00:52:28;;;;;;;5.22;4.20;;;17.10;45.80;;;;;;4935285;28;90833;-74
2022/01/11 00:54:55;;;;;;;5.18;4.32;;;17.10;45.90;;;;;;4935668;28;90021;-74
2022/01/11 00:57:22;;;;;;;5.93;4.22;;;17.10;45.90;;;;;;4936066;28;88407;-75
2022/01/11 00:59:48;;;;;;;5.90;4.57;;;17.10;45.90;;;;;;4936124;28;88303;-74
2022/01/11 01:02:13;;;;;;;5.97;4.15;;;17.10;45.90;;;;;;4935872;28;88558;-74
2022/01/11 01:04:39;;;;;;;6.35;4.45;;;17.10;45.80;;;;;;4936125;28;96369;-74
2022/01/11 01:07:05;;;;;;;4.90;4.35;;;17.10;45.80;;;;;;4936445;28;88087;-74
2022/01/11 01:09:40;;;;;;;5.40;4.32;;;17.10;45.90;;;;;;4936355;28;87562;-74
2022/01/11 01:12:07;;;;;;;5.68;3.97;;;17.10;45.80;;;;;;4936128;28;88379;-74
2022/01/11 01:14:32;;;;;;;5.47;4.50;;;17.10;45.90;;;;;;4936244;28;90027;-74
2022/01/11 01:16:58;;;;;;;5.28;4.35;;;17.10;45.90;;;;;;4935231;28;89141;-74
2022/01/11 01:19:27;;;;;;;5.60;4.20;;;17.00;45.80;;;;;;4935715;28;88315;-74
2022/01/11 01:21:54;;;;;;;5.95;4.60;;;17.00;45.80;;;;;;4935315;28;90277;-74
2022/01/11 01:24:21;;;;;;;5.85;4.50;;;17.00;45.70;;;;;;4935580;28;89489;-74
2022/01/11 01:26:46;;;;;;;7.45;4.88;;;17.00;45.70;;;;;;4935321;28;88004;-74
2022/01/11 01:29:12;;;;;;;5.55;4.57;;;17.00;46.70;;;;;;4934822;28;88197;-74
2022/01/11 01:31:38;;;;;;;6.05;4.40;;;17.00;45.70;;;;;;4934855;28;88680;-75
2022/01/11 01:34:05;;;;;;;4.82;4.35;;;17.00;45.80;;;;;;4935697;28;88934;-74
2022/01/11 01:36:31;;;;;;;6.05;4.63;;;17.00;45.70;;;;;;4935457;28;89376;-74
2022/01/11 01:38:56;;;;;;;5.60;4.03;;;17.00;45.70;;;;;;4934957;28;88169;-74
2022/01/11 01:41:23;;;;;;;4.85;4.20;;;17.00;45.70;;;;;;4935064;28;89997;-74
2022/01/11 01:43:55;;;;;;;6.68;4.50;;;17.00;45.70;;;;;;4935162;28;88904;-74
2022/01/11 01:46:22;;;;;;;5.75;4.72;;;17.00;45.80;;;;;;4935788;28;88491;-75
2022/01/11 01:48:49;;;;;;;5.88;4.40;;;16.90;46.70;;;;;;4935698;28;88245;-74
2022/01/11 01:51:14;;;;;;;5.30;4.40;;;17.00;45.80;;;;;;4935570;28;88503;-75
2022/01/11 01:53:47;;;;;;;7.03;4.85;;;16.90;45.70;;;;;;4936036;28;88394;-75
2022/01/11 01:56:13;;;;;;;5.15;4.20;;;17.00;45.70;;;;;;4935860;28;88657;-74
2022/01/11 01:58:40;;;;;;;7.45;4.65;;;16.90;45.70;;;;;;4935116;28;87346;-75
2022/01/11 02:01:06;;;;;;;6.40;4.40;;;16.90;45.80;;;;;;4933127;28;89513;-75
2022/01/11 02:03:39;;;;;;;5.78;4.40;;;16.90;45.80;;;;;;4934251;28;89748;-74
2022/01/11 02:06:15;;;;;;;5.68;4.60;;;16.90;45.80;;;;;;4934382;28;89177;-74
2022/01/11 02:08:42;;;;;;;5.18;4.47;;;16.90;45.70;;;;;;4934605;28;88666;-73
2022/01/11 02:11:08;;;;;;;4.63;4.13;;;16.90;45.80;;;;;;4934915;28;88856;-75
2022/01/11 02:13:36;;;;;;;5.38;4.70;;;16.90;45.80;;;;;;4934534;28;88390;-74
2022/01/11 02:16:04;;;;;;;7.07;4.88;;;16.90;45.70;;;;;;4934885;28;89600;-74
2022/01/11 02:18:29;;;;;;;7.20;4.78;;;16.90;45.80;;;;;;4935267;28;87982;-73
2022/01/11 02:20:58;;;;;;;5.45;4.55;;;16.90;45.80;;;;;;4934757;28;88836;-74
2022/01/11 02:23:27;;;;;;;6.05;5.00;;;16.90;45.70;;;;;;4935016;28;90245;-74
2022/01/11 02:25:53;;;;;;;6.47;4.82;;;16.90;45.70;;;;;;4934663;28;88727;-74
2022/01/11 02:28:22;;;;;;;6.57;5.03;;;16.90;45.60;;;;;;4935107;28;88007;-74
2022/01/11 02:30:49;;;;;;;5.78;4.85;;;16.90;45.60;;;;;;4933747;28;92308;-74
2022/01/11 02:33:30;;;;;;;7.63;4.70;;;17.00;45.70;;;;;;4934502;28;91231;-74
2022/01/11 02:35:56;;;;;;;6.18;4.53;;;16.90;45.70;;;;;;4934238;28;88241;-74
2022/01/11 02:38:22;;;;;;;6.50;4.60;;;17.00;45.60;;;;;;4934161;28;90795;-74
2022/01/11 02:40:47;;;;;;;6.55;4.90;;;16.90;45.50;;;;;;4933870;28;89467;-74
2022/01/11 02:43:13;;;;;;;6.80;5.00;;;16.90;45.50;;;;;;4934510;28;89733;-74
2022/01/11 02:45:39;;;;;;;5.65;4.80;;;16.90;45.60;;;;;;4934873;28;88555;-74
2022/01/11 02:48:05;;;;;;;7.30;5.35;;;16.90;45.50;;;;;;4934442;28;94438;-73
2022/01/11 02:50:30;;;;;;;7.32;4.90;;;16.90;45.50;;;;;;4933977;28;89006;-74
2022/01/11 02:52:56;;;;;;;6.97;5.03;;;16.90;45.50;;;;;;4934664;28;89306;-74
2022/01/11 02:55:24;;;;;;;6.80;5.22;;;17.00;45.50;;;;;;4934192;28;89429;-74
2022/01/11 02:57:49;;;;;;;6.22;4.88;;;16.90;45.30;;;;;;4935172;28;88181;-74
2022/01/11 03:00:18;;;;;;;6.03;4.72;;;16.90;45.40;;;;;;4934578;28;88685;-74
2022/01/11 03:02:44;;;;;;;6.40;5.22;;;16.90;45.40;;;;;;4935130;28;88748;-74
2022/01/11 03:05:11;;;;;;;5.85;4.88;;;16.90;45.50;;;;;;4935086;28;88042;-74
2022/01/11 03:07:38;;;;;;;6.50;4.72;;;16.90;45.40;;;;;;4934249;28;88384;-74
2022/01/11 03:10:34;;;;;;;6.13;4.88;;;16.90;45.40;;;;;;4935050;28;88700;-74
2022/01/11 03:13:02;;;;;;;7.40;5.43;;;16.90;45.30;;;;;;4935699;28;89534;-74
2022/01/11 03:15:28;;;;;;;6.60;4.95;;;16.90;45.40;;;;;;4933970;28;88506;-74
2022/01/11 03:17:54;;;;;;;6.60;5.00;;;16.90;45.50;;;;;;4933694;28;88577;-75
2022/01/11 03:20:19;;;;;;;6.95;5.25;;;16.90;45.50;;;;;;4933058;28;91663;-74
2022/01/11 03:22:45;;;;;;;6.13;5.05;;;16.90;45.40;;;;;;4933873;28;89051;-74
2022/01/11 03:25:12;;;;;;;7.32;5.57;;;16.90;45.50;;;;;;4933648;28;88058;-74
2022/01/11 03:27:42;;;;;;;6.65;5.50;;;16.90;45.30;;;;;;4933696;28;88037;-74
2022/01/11 03:30:08;;;;;;;6.68;5.63;;;16.90;45.30;;;;;;4933548;28;88675;-74
2022/01/11 03:32:34;;;;;;;6.25;5.20;;;16.90;45.30;;;;;;4933081;28;88868;-74
2022/01/11 03:35:00;;;;;;;6.65;5.32;;;17.00;45.30;;;;;;4933922;28;88385;-74
2022/01/11 03:37:31;;;;;;;6.78;5.47;;;17.00;45.20;;;;;;4935199;28;87529;-74
2022/01/11 03:40:04;;;;;;;8.15;5.63;;;17.10;45.10;;;;;;4935936;28;88044;-74
2022/01/11 03:42:31;;;;;;;7.13;5.03;;;17.10;45.00;;;;;;4938426;28;91140;-74
2022/01/11 03:44:56;;;;;;;7.20;5.10;;;17.10;45.00;;;;;;4934945;28;89186;-74
2022/01/11 03:47:22;;;;;;;6.47;5.20;;;17.00;44.90;;;;;;4934409;28;88407;-75
2022/01/11 03:49:48;;;;;;;6.55;5.20;;;17.00;45.00;;;;;;4932749;28;89872;-74
2022/01/11 03:52:14;;;;;;;7.25;5.47;;;17.00;45.00;;;;;;4933916;28;88491;-74
2022/01/11 03:57:25;;;;;;;6.57;5.07;;;17.10;45.10;;;;;;4933319;28;87987;-74
2022/01/11 03:59:50;;;;;;;6.50;5.65;;;17.10;44.90;;;;;;4933369;28;89100;-74
2022/01/11 05:45:34;;;;;;;5.22;4.60;;;18.40;42.80;;;;;;4518789;22;93683;-75
2022/01/11 05:48:02;;;;;;;5.95;4.60;;;18.30;42.80;;;;;;4972097;28;94255;-75
2022/01/11 05:50:28;;;;;;;6.03;4.97;;;18.30;42.70;;;;;;4973270;28;94403;-76
2022/01/11 05:52:53;;;;;;;5.70;4.90;;;18.20;42.80;;;;;;4973297;28;93589;-76
2022/01/11 05:55:19;;;;;;;5.97;5.13;;;18.20;42.90;;;;;;4972909;28;92556;-76
2022/01/11 05:57:44;;;;;;;6.50;5.20;;;18.10;42.90;;;;;;4971626;28;92508;-76
2022/01/11 06:00:15;;;;;;;6.25;5.00;;;18.10;43.10;;;;;;4971393;28;95454;-76
2022/01/11 06:02:44;;;;;;;6.13;4.97;;;18.00;43.10;;;;;;4971801;28;95268;-75
2022/01/11 06:05:10;;;;;;;6.72;5.38;;;17.90;43.30;;;;;;4971318;28;92784;-75
2022/01/11 06:07:37;;;;;;;5.95;5.30;;;17.90;43.40;;;;;;4972403;28;93196;-76
2022/01/11 06:10:04;;;;;;;5.80;5.20;;;17.80;43.50;;;;;;4970629;28;95070;-75
2022/01/11 06:12:29;;;;;;;6.32;5.30;;;17.70;43.60;;;;;;4971659;28;92887;-75
2022/01/11 06:14:55;;;;;;;5.85;5.22;;;17.70;43.70;;;;;;4972633;28;92967;-76
2022/01/11 06:17:20;;;;;;;7.95;5.53;;;17.60;43.70;;;;;;4972497;28;92043;-76
2022/01/11 06:19:46;;;;;;;6.72;5.80;;;17.60;43.90;;;;;;4972010;28;93678;-74
2022/01/11 06:22:12;;;;;;;7.53;5.47;;;17.50;44.00;;;;;;4971543;28;92751;-75
2022/01/11 06:24:37;;;;;;;7.60;5.72;;;17.40;44.00;;;;;;4969394;28;95139;-75
2022/01/11 06:27:03;;;;;;;6.80;5.85;;;17.40;44.10;;;;;;4971354;28;92608;-75
2022/01/11 06:29:29;;;;;;;6.70;5.80;;;17.30;44.10;;;;;;4972091;28;93506;-73
2022/01/11 06:31:55;;;;;;;6.40;5.72;;;17.30;44.20;;;;;;4970808;28;96771;-75
2022/01/11 06:34:21;;;;;;;6.80;5.82;;;17.20;44.40;;;;;;4970632;28;94169;-75
2022/01/11 06:36:46;;;;;;;6.70;5.38;;;17.20;44.60;;;;;;4969710;28;92523;-75
2022/01/11 06:39:12;;;;;;;6.95;6.22;;;17.20;44.90;;;;;;4971222;28;96762;-74
2022/01/11 06:41:38;;;;;;;7.25;6.30;;;17.10;45.00;;;;;;4971322;28;92604;-74
2022/01/11 06:44:05;;;;;;;8.68;6.25;;;17.10;45.20;;;;;;4971196;28;94490;-73
2022/01/11 06:46:31;;;;;;;16.05;7.18;;;17.00;45.30;;;;;;4972109;28;92563;-72
2022/01/11 06:48:57;;;;;;;31.20;7.20;;;17.00;45.30;;;;;;4970287;28;95483;-72
2022/01/11 06:51:23;;;;;;;12.77;7.13;;;17.00;45.70;;;;;;4971122;28;96674;-75
2022/01/11 06:53:48;;;;;;;17.23;7.75;;;17.00;45.60;;;;;;4971893;28;92824;-75
2022/01/11 06:56:14;;;;;;;14.70;7.45;;;16.90;45.50;;;;;;4971686;28;92977;-75
2022/01/11 06:58:40;;;;;;;14.07;7.30;;;16.90;45.40;;;;;;4970894;28;93034;-75
2022/01/11 07:01:06;;;;;;;11.60;7.25;;;16.90;45.50;;;;;;4970221;28;93418;-75
2022/01/11 07:03:31;;;;;;;13.50;6.50;;;16.90;45.50;;;;;;4970481;28;92762;-75
2022/01/11 07:05:57;;;;;;;10.80;7.38;;;16.90;45.50;;;;;;4971171;28;91868;-76
2022/01/11 07:08:24;;;;;;;14.70;6.90;;;17.00;45.60;;;;;;4970620;28;93144;-75
2022/01/11 07:10:50;;;;;;;14.32;7.55;;;16.90;45.50;;;;;;4970303;28;92896;-75
2022/01/11 07:13:16;;;;;;;13.88;7.68;;;16.90;45.30;;;;;;4968807;28;96354;-75
2022/01/11 07:15:42;;;;;;;10.68;7.50;;;16.90;46.40;;;;;;4970099;28;92571;-75
2022/01/11 07:18:11;;;;;;;11.35;6.65;;;16.90;45.70;;;;;;4970184;28;93137;-76
2022/01/11 07:20:38;;;;;;;9.68;6.82;;;16.90;46.10;;;;;;4971201;28;93712;-76
2022/01/11 07:23:04;;;;;;;10.57;6.90;;;16.90;46.40;;;;;;4970066;28;92684;-74
2022/01/11 07:25:32;;;;;;;14.32;8.07;;;16.90;46.70;;;;;;4969768;28;93096;-77
2022/01/11 07:27:59;;;;;;;9.75;7.10;;;16.90;47.20;;;;;;4970428;28;93035;-76
2022/01/11 07:30:24;;;;;;;10.35;7.60;;;17.00;47.90;;;;;;4969994;28;94343;-76
2022/01/11 07:32:51;;;;;;;9.80;7.25;;;16.90;48.30;;;;;;4970357;28;93371;-76
2022/01/11 07:35:17;;;;;;;15.00;7.32;;;17.00;48.70;;;;;;4970535;28;92833;-76
2022/01/11 07:37:42;;;;;;;11.73;7.22;;;17.00;48.70;;;;;;4967513;28;95872;-75
2022/01/11 07:40:09;;;;;;;10.93;7.22;;;17.00;48.70;;;;;;4970267;28;95181;-76
2022/01/11 07:42:36;;;;;;;14.07;7.05;;;17.00;49.40;;;;;;4969815;28;92852;-75
2022/01/11 07:45:03;;;;;;;10.93;7.22;;;17.00;48.80;;;;;;4971556;28;92984;-77
2022/01/11 07:47:29;;;;;;;10.73;7.18;;;17.10;48.80;;;;;;4973124;28;94910;-75
2022/01/11 07:49:57;;;;;;;8.55;6.55;;;17.10;48.90;;;;;;4976435;28;93310;-76
2022/01/11 07:52:22;;;;;;;12.38;7.43;;;17.10;49.10;;;;;;4971291;28;92798;-74
2022/01/11 07:54:48;;;;;;;9.50;6.90;;;17.10;49.30;;;;;;4970691;28;92237;-75
2022/01/11 07:57:13;;;;;;;10.45;7.32;;;17.10;49.40;;;;;;4969566;28;95307;-75
2022/01/11 07:59:39;;;;;;;10.25;7.45;;;17.10;49.40;;;;;;4969567;28;92482;-74
2022/01/11 08:02:05;;;;;;;12.63;7.47;;;17.10;49.40;;;;;;4968141;28;95240;-74
2022/01/11 08:04:31;;;;;;;15.23;7.28;;;17.20;49.20;;;;;;4969983;28;92871;-74
2022/01/11 08:06:58;;;;;;;21.98;7.97;;;17.20;49.00;;;;;;4969437;28;93493;-76
2022/01/11 08:09:24;;;;;;;16.67;7.10;;;17.30;50.00;;;;;;4969768;28;92893;-71
2022/01/11 08:11:50;;;;;;;10.10;6.97;;;17.40;48.70;;;;;;4970787;28;92480;-75
2022/01/11 08:14:17;;;;;;;10.60;6.95;;;17.50;48.40;;;;;;4971160;28;92864;-72
2022/01/11 08:16:42;;;;;;;14.43;7.43;;;17.50;48.10;;;;;;4970565;28;92993;-68
2022/01/11 08:19:08;;;;;;;13.48;7.43;;;17.40;48.00;;;;;;4970205;28;92758;-67
2022/01/11 08:21:34;;;;;;;13.00;6.88;;;17.40;48.00;;;;;;4970197;28;92833;-73
2022/01/11 08:23:59;;;;;;;13.20;7.63;;;17.30;47.90;;;;;;4969146;28;92866;-73
2022/01/11 08:26:25;;;;;;;12.50;7.68;;;17.30;48.00;;;;;;4967639;28;96538;-73
2022/01/11 08:28:50;;;;;;;12.98;8.07;;;17.20;48.00;;;;;;4968744;28;95180;-74
2022/01/11 08:31:16;;;;;;;14.75;8.60;;;17.10;48.00;;;;;;4970159;28;92559;-73
2022/01/11 08:33:42;;;;;;;12.82;7.75;;;17.10;48.00;;;;;;4969337;28;92786;-72
2022/01/11 08:36:07;;;;;;;29.65;9.75;;;17.10;48.20;;;;;;4969772;28;95115;-74
2022/01/11 08:38:35;;;;;;;21.52;9.23;;;17.00;48.30;;;;;;4969665;28;92866;-74
2022/01/11 08:41:01;;;;;;;29.35;9.25;;;17.00;48.80;;;;;;4970304;28;93326;-76
2022/01/11 08:43:27;;;;;;;18.90;9.38;;;17.10;49.40;;;;;;4970735;28;91739;-76
2022/01/11 08:45:52;;;;;;;16.02;9.00;;;17.00;49.80;;;;;;4969882;28;93031;-76
2022/01/11 08:48:18;;;;;;;20.35;9.85;;;17.00;50.10;;;;;;4971060;28;92883;-76
2022/01/11 08:50:44;;;;;;;19.05;9.13;;;17.00;50.70;;;;;;4971642;28;95021;-76
2022/01/11 08:53:10;;;;;;;21.52;9.43;;;17.00;51.10;;;;;;4971951;28;92550;-75
2022/01/11 08:55:35;;;;;;;16.88;9.50;;;16.90;51.20;;;;;;4971922;28;93618;-75
2022/01/11 08:58:01;;;;;;;21.20;10.23;;;16.90;51.40;;;;;;4972830;28;94436;-75
2022/01/11 09:00:27;;;;;;;15.38;9.20;;;16.90;51.40;;;;;;4971952;28;92888;-76
2022/01/11 09:02:53;;;;;;;15.88;9.32;;;16.90;51.50;;;;;;4972080;28;92955;-75
2022/01/11 09:05:21;;;;;;;14.65;9.43;;;16.90;51.50;;;;;;4971968;28;92989;-76
2022/01/11 09:07:47;;;;;;;17.20;9.23;;;16.90;51.40;;;;;;4972501;28;92779;-76
2022/01/11 09:10:14;;;;;;;14.18;8.93;;;16.90;51.40;;;;;;4972441;28;92902;-76
2022/01/11 09:12:41;;;;;;;16.90;9.32;;;16.80;51.30;;;;;;4970602;28;93903;-76
2022/01/11 09:15:08;;;;;;;13.25;9.52;;;16.80;51.10;;;;;;4971893;28;96482;-72
2022/01/11 09:17:34;;;;;;;13.73;8.50;;;16.90;51.10;;;;;;4972759;28;97775;-74
2022/01/11 09:20:00;;;;;;;15.63;9.10;;;16.80;50.90;;;;;;4972779;28;92526;-75
2022/01/11 09:22:26;;;;;;;13.30;9.02;;;16.80;51.90;;;;;;4972671;28;93142;-75
2022/01/11 09:24:51;;;;;;;15.40;9.32;;;16.80;51.00;;;;;;4972115;28;93277;-75
2022/01/11 09:27:17;;;;;;;15.60;8.70;;;16.90;50.90;;;;;;4971488;28;92914;-75
2022/01/11 09:29:44;;;;;;;14.25;9.10;;;16.80;50.70;;;;;;4972161;28;93101;-75
2022/01/11 09:32:11;;;;;;;11.93;9.15;;;16.90;50.70;;;;;;4973130;28;91852;-74
2022/01/11 09:34:39;;;;;;;12.40;8.57;;;16.90;50.50;;;;;;4974573;28;93739;-75
2022/01/11 09:37:06;;;;;;;14.82;8.65;;;16.90;50.40;;;;;;4975599;28;93948;-74
2022/01/11 09:39:32;;;;;;;14.40;8.30;;;16.90;50.30;;;;;;4975009;28;95037;-75
2022/01/11 09:41:59;;;;;;;14.40;8.05;;;16.90;50.20;;;;;;4972691;28;92494;-75
2022/01/11 09:44:25;;;;;;;10.85;7.85;;;16.90;50.00;;;;;;4971631;28;93682;-75
2022/01/11 09:46:52;;;;;;;13.25;8.55;;;17.00;49.90;;;;;;4970982;28;92881;-75
2022/01/11 09:49:18;;;;;;;10.50;7.85;;;17.00;49.80;;;;;;4971992;28;92928;-75
2022/01/11 09:51:44;;;;;;;15.07;8.25;;;17.00;49.60;;;;;;4971124;28;92858;-75
2022/01/11 09:54:09;;;;;;;14.60;8.30;;;17.00;49.40;;;;;;4971013;28;93375;-75
2022/01/11 09:56:37;;;;;;;14.82;8.75;;;17.00;49.40;;;;;;4971035;28;92696;-75
2022/01/11 09:59:04;;;;;;;10.88;7.85;;;17.00;49.40;;;;;;4968582;28;92746;-75
2022/01/11 10:01:30;;;;;;;12.70;8.15;;;17.00;49.20;;;;;;4970318;28;92949;-75
2022/01/11 10:03:58;;;;;;;14.55;8.20;;;17.10;49.10;;;;;;4971119;28;96208;-75
2022/01/11 10:06:25;;;;;;;11.93;8.15;;;17.00;49.00;;;;;;4971285;28;95581;-74
2022/01/11 10:09:08;;;;;;;10.23;7.22;;;17.00;48.90;;;;;;4971639;28;93105;-74
2022/01/11 10:11:36;;;;;;;10.25;7.40;;;17.00;48.80;;;;;;4971315;28;92896;-73
2022/01/11 10:14:22;;;;;;;10.98;7.47;;;17.10;48.90;;;;;;4971346;28;93622;-73
2022/01/11 10:16:49;;;;;;;9.82;7.63;;;17.10;48.70;;;;;;4969446;28;93139;-74
2022/01/11 10:19:23;;;;;;;11.65;6.97;;;17.00;48.70;;;;;;4970704;28;92922;-74
2022/01/11 10:21:50;;;;;;;11.05;7.72;;;17.10;48.60;;;;;;4971309;28;91900;-75
2022/01/11 10:24:27;;;;;;;11.13;7.53;;;17.00;48.50;;;;;;4970717;28;94295;-74
2022/01/11 10:26:54;;;;;;;11.32;8.00;;;17.10;48.50;;;;;;4970962;28;93882;-76
2022/01/11 10:29:24;;;;;;;10.25;7.32;;;17.00;48.40;;;;;;4968990;28;95257;-73
2022/01/11 10:31:51;;;;;;;9.90;7.30;;;17.10;48.40;;;;;;4970465;28;92942;-75
2022/01/11 10:34:26;;;;;;;10.10;7.25;;;17.00;48.30;;;;;;4970295;28;94449;-75
2022/01/11 10:36:52;;;;;;;9.40;7.45;;;17.10;48.30;;;;;;4970091;28;92884;-73
2022/01/11 10:39:28;;;;;;;11.32;6.90;;;17.00;48.20;;;;;;4970972;28;92923;-73
2022/01/11 10:41:54;;;;;;;9.63;6.90;;;17.00;48.10;;;;;;4971092;28;92448;-74
2022/01/11 10:44:47;;;;;;;8.88;6.72;;;17.00;48.20;;;;;;4970192;28;93807;-75
2022/01/11 10:47:25;;;;;;;8.00;6.85;;;17.10;48.10;;;;;;4971062;28;93779;-75
2022/01/11 10:49:53;;;;;;;11.40;7.45;;;17.10;48.00;;;;;;4970837;28;92538;-73
2022/01/11 10:52:19;;;;;;;8.18;6.40;;;17.10;47.90;;;;;;4971070;28;93025;-74
2022/01/11 10:54:46;;;;;;;8.38;6.65;;;17.10;47.90;;;;;;4970610;28;95889;-74
2022/01/11 10:57:33;;;;;;;8.55;6.25;;;17.00;47.90;;;;;;4971034;28;95022;-74
2022/01/11 11:00:18;;;;;;;9.35;6.60;;;17.10;47.80;;;;;;4971073;28;92645;-76
2022/01/11 11:02:57;;;;;;;10.52;7.10;;;17.10;47.80;;;;;;4970598;28;92869;-75
2022/01/11 11:05:24;;;;;;;8.48;7.03;;;17.10;47.80;;;;;;4971120;28;93705;-74
2022/01/11 11:08:02;;;;;;;7.35;6.43;;;17.10;47.70;;;;;;4969695;28;93784;-74
2022/01/11 11:10:39;;;;;;;9.45;6.40;;;17.00;47.60;;;;;;4969552;28;93393;-74
2022/01/11 11:13:07;;;;;;;9.32;6.13;;;17.10;47.70;;;;;;4970238;28;91868;-75
2022/01/11 11:15:38;;;;;;;9.30;6.78;;;17.10;47.70;;;;;;4969903;28;96427;-76
2022/01/11 11:18:06;;;;;;;7.75;5.68;;;17.10;47.50;;;;;;4970012;28;93064;-73
2022/01/11 11:20:34;;;;;;;9.27;6.72;;;17.10;47.50;;;;;;4968701;28;94924;-76
2022/01/11 11:23:01;;;;;;;9.35;6.50;;;17.10;47.50;;;;;;4970970;28;92561;-75
2022/01/11 11:25:28;;;;;;;8.32;6.60;;;17.10;47.50;;;;;;4971734;28;94529;-75
2022/01/11 11:27:54;;;;;;;8.80;6.00;;;17.10;47.50;;;;;;4974735;28;92713;-74
2022/01/11 11:30:22;;;;;;;8.18;5.85;;;17.10;47.40;;;;;;4973632;28;92978;-74
2022/01/11 11:32:51;;;;;;;7.22;5.75;;;17.10;47.30;;;;;;4973238;28;92490;-74
2022/01/11 11:35:18;;;;;;;8.48;6.20;;;17.10;47.30;;;;;;4971093;28;93267;-74
2022/01/11 11:37:47;;;;;;;7.53;6.00;;;17.10;47.30;;;;;;4969919;28;92941;-74
2022/01/11 11:40:19;;;;;;;7.72;6.00;;;17.10;47.40;;;;;;4968088;28;92663;-74
2022/01/11 11:42:46;;;;;;;7.45;5.80;;;17.10;47.30;;;;;;4969940;28;93063;-74
2022/01/11 11:45:23;;;;;;;7.93;5.97;;;17.10;47.30;;;;;;4966483;28;95821;-75
2022/01/11 11:47:49;;;;;;;7.53;6.00;;;17.10;47.20;;;;;;4967685;28;95247;-74
2022/01/11 11:50:21;;;;;;;6.45;5.32;;;17.10;47.20;;;;;;4969141;28;93088;-74
2022/01/11 11:52:50;;;;;;;7.22;5.60;;;17.10;47.30;;;;;;4969418;28;92568;-74
2022/01/11 11:55:30;;;;;;;10.02;6.00;;;17.10;47.30;;;;;;4970193;28;93629;-74
2022/01/11 11:58:03;;;;;;;7.60;5.78;;;17.10;47.10;;;;;;4967978;28;94322;-75
2022/01/11 12:00:41;;;;;;;7.00;5.93;;;17.10;47.10;;;;;;4967824;28;93992;-75
2022/01/11 12:03:25;;;;;;;7.43;5.85;;;17.10;47.10;;;;;;4969417;28;92308;-75
2022/01/11 12:05:55;;;;;;;8.93;5.60;;;17.10;47.10;;;;;;4970955;28;93651;-75
2022/01/11 12:08:27;;;;;;;7.80;5.32;;;17.10;47.20;;;;;;4969274;28;94198;-75
2022/01/11 12:10:58;;;;;;;9.20;5.55;;;17.10;47.10;;;;;;4969139;28;94954;-75
2022/01/11 12:13:52;;;;;;;6.78;5.57;;;17.20;47.10;;;;;;4970617;28;92628;-75
2022/01/11 12:16:39;;;;;;;7.28;5.75;;;17.20;47.00;;;;;;4969646;28;93192;-75
2022/01/11 12:19:10;;;;;;;6.28;5.25;;;17.20;47.10;;;;;;4969660;28;94655;-75
2022/01/11 12:22:04;;;;;;;7.18;5.20;;;17.10;47.10;;;;;;4970238;28;92808;-75
2022/01/11 12:24:35;;;;;;;6.25;4.97;;;17.20;47.10;;;;;;4973956;28;93016;-73
2022/01/11 12:27:02;;;;;;;5.97;5.30;;;17.20;47.20;;;;;;4973906;28;93556;-75
2022/01/11 12:29:29;;;;;;;7.60;5.20;;;17.20;47.10;;;;;;4973602;28;92786;-75
2022/01/11 12:32:06;;;;;;;8.48;5.72;;;17.20;48.20;;;;;;4971997;28;92676;-75
2022/01/11 12:34:47;;;;;;;6.10;5.10;;;17.20;47.10;;;;;;4973106;28;92759;-75
2022/01/11 12:37:23;;;;;;;8.50;5.25;;;17.20;47.10;;;;;;4971379;28;95888;-75
2022/01/11 12:40:09;;;;;;;6.38;5.25;;;17.20;47.10;;;;;;4971688;28;95826;-75
2022/01/11 12:42:36;;;;;;;6.53;4.85;;;17.20;47.10;;;;;;4972860;28;93131;-75
2022/01/11 12:47:41;;;;;;;6.00;5.25;;;17.20;47.10;;;;;;4972169;28;93018;-75
2022/01/11 12:50:11;;;;;;;6.75;5.47;;;17.20;47.10;;;;;;4971941;28;93088;-75
2022/01/11 12:52:36;;;;;;;7.07;5.00;;;17.20;47.10;;;;;;4972738;28;92606;-75
2022/01/11 12:55:04;;;;;;;6.20;5.13;;;17.20;47.30;;;;;;4973287;28;91987;-75
2022/01/11 12:57:30;;;;;;;7.38;5.35;;;17.20;47.20;;;;;;4972021;28;93205;-75
2022/01/11 12:59:57;;;;;;;6.20;5.10;;;17.20;47.30;;;;;;4972119;28;92699;-75
2022/01/11 13:02:29;;;;;;;7.53;5.10;;;17.20;47.30;;;;;;4971540;28;95241;-75
2022/01/11 13:05:04;;;;;;;6.05;4.80;;;17.20;47.30;;;;;;4972435;28;92815;-75
2022/01/11 13:07:41;;;;;;;6.97;5.00;;;17.20;47.30;;;;;;4971798;28;93142;-75
2022/01/11 13:10:20;;;;;;;6.50;4.60;;;17.20;47.30;;;;;;4972714;28;92690;-75
2022/01/11 13:12:55;;;;;;;8.10;5.55;;;17.20;47.30;;;;;;4972005;28;92969;-75
2022/01/11 13:15:38;;;;;;;6.85;5.20;;;17.10;47.20;;;;;;4975277;28;92472;-75
2022/01/11 13:18:08;;;;;;;;;;;17.20;47.30;;;;;;4978178;28;94112;-74
2022/01/11 13:20:36;;;;;;;6.07;5.15;;;17.10;47.40;;;;;;4974098;28;92963;-74
2022/01/11 13:23:29;;;;;;;7.72;5.47;;;17.10;47.40;;;;;;4972410;28;92765;-73
2022/01/11 13:26:01;;;;;;;6.72;4.88;;;17.20;47.30;;;;;;4971570;28;93857;-75
2022/01/11 13:28:34;;;;;;;7.75;5.40;;;17.10;47.30;;;;;;4970851;28;96755;-75
2022/01/11 13:31:02;;;;;;;;;;;17.10;47.20;;;;;;4972579;28;95567;-75
2022/01/11 13:33:33;;;;;;;6.38;4.60;;;17.10;47.30;;;;;;4971877;28;92993;-74
2022/01/11 13:36:09;;;;;;;7.22;4.88;;;17.10;47.30;;;;;;4971079;28;93223;-73
2022/01/11 13:38:35;;;;;;;6.13;5.00;;;17.10;47.10;;;;;;4971762;28;93070;-75
2022/01/11 13:41:04;;;;;;;6.55;4.57;;;17.10;47.20;;;;;;4972418;28;93124;-75
2022/01/11 13:43:38;;;;;;;5.13;4.50;;;17.10;47.30;;;;;;4972941;28;93065;-75
2022/01/11 13:46:05;;;;;;;5.43;4.25;;;17.20;47.30;;;;;;4972567;28;91847;-75
2022/01/11 13:48:36;;;;;;;6.43;4.95;;;17.10;48.30;;;;;;4972625;28;93329;-74
2022/01/11 13:51:02;;;;;;;6.78;4.80;;;17.20;47.20;;;;;;4971616;28;93002;-75
2022/01/11 13:53:34;;;;;;;5.43;4.88;;;17.10;47.20;;;;;;4970190;28;94951;-76
2022/01/11 13:56:16;;;;;;;6.60;4.22;;;17.10;47.10;;;;;;4970963;28;92731;-75
2022/01/11 13:58:53;;;;;;;7.77;4.43;;;17.20;47.20;;;;;;4971123;28;94075;-74
2022/01/11 14:01:21;;;;;;;6.60;4.95;;;17.20;47.10;;;;;;4970389;28;93020;-76
2022/01/11 14:03:47;;;;;;;5.35;4.60;;;17.20;47.10;;;;;;4971215;28;92971;-75
2022/01/11 14:06:23;;;;;;;5.65;4.40;;;17.10;47.10;;;;;;4971523;28;92842;-75
2022/01/11 14:08:53;;;;;;;5.93;4.63;;;17.20;47.10;;;;;;4970591;28;94855;-75
2022/01/11 14:11:34;;;;;;;6.13;4.10;;;17.10;47.20;;;;;;4970927;28;94592;-75
2022/01/11 14:14:01;;;;;;;6.18;5.13;;;17.20;47.20;;;;;;4971749;28;92583;-75
2022/01/11 14:16:33;;;;;;;8.50;5.05;;;17.10;47.10;;;;;;4972697;28;92600;-76
2022/01/11 14:19:11;;;;;;;5.53;4.53;;;17.10;47.10;;;;;;4969750;28;95498;-76
2022/01/11 14:21:56;;;;;;;6.35;4.63;;;17.20;47.10;;;;;;4970993;28;95094;-75
2022/01/11 14:24:45;;;;;;;6.97;5.00;;;17.20;47.10;;;;;;4970671;28;93687;-75
2022/01/11 14:27:21;;;;;;;8.63;4.78;;;17.20;47.00;;;;;;4970795;28;93090;-75
2022/01/11 14:29:59;;;;;;;5.70;4.40;;;17.20;46.90;;;;;;4971137;28;93136;-75
2022/01/11 14:32:27;;;;;;;4.93;4.30;;;17.20;46.80;;;;;;4971065;28;93800;-75
2022/01/11 14:35:07;;;;;;;5.85;4.45;;;17.20;46.90;;;;;;4970768;28;93270;-75
2022/01/11 14:37:34;;;;;;;6.05;4.47;;;17.20;46.90;;;;;;4971919;28;92232;-75
2022/01/11 14:40:03;;;;;;;5.50;3.95;;;17.20;47.00;;;;;;4970785;28;92798;-75
2022/01/11 14:42:31;;;;;;;5.53;4.45;;;17.20;46.90;;;;;;4970579;28;93434;-75
2022/01/11 14:45:21;;;;;;;5.10;4.05;;;17.30;46.90;;;;;;4969910;28;94902;-75